Airfield :
LOGIN :

Register | Disclaimer

   EN    FR    IT 

 










Legend :    VFR   Marginal VFR   IFR   Intensive IFR   Very Intensive IFR
Visi :
Ceiling :
>= 8 km
>= 3000ft
5 to 8 km
1000 to 3000 ft
1500m to 5 km
500 to 1000 ft
800 to 1500m
200 to 500 ft
< 800m
< 200 ft
Symbols :   Thunderstorms  Fog  Heavy snow  Heavy precipitations  Wind > 20 kt
SIGMETs :     Misc.  Thunderstorms  Icing  Turbulence  Mountain Waves  Volcanic Ashes






- Airport Elevation : 375 ft
- IATA code : MST


EHBK - Maastricht Aachen

CURRENT METAR :
  • 282125Z AUTO 20009KT 9999 NSC 05/02 Q1019 NOSIG

EXPIRED METARs :
  • 282055Z AUTO 19008KT 9999 NSC 06/02 Q1019 NOSIG
  • 282025Z AUTO 20008KT 9999 NSC 06/03 Q1019 NOSIG
  • 281955Z AUTO 21006KT 9999 FEW042 06/02 Q1019 NOSIG
  • 281925Z AUTO 19005KT 9999 NSC 07/02 Q1019 NOSIG
  • 281855Z AUTO 19004KT 9999 NSC 07/04 Q1019 NOSIG
  • 281825Z AUTO 20004KT 9999 OVC049 07/04 Q1020 NOSIG
  • 281755Z AUTO 20005KT 9999 NSC 07/04 Q1020 NOSIG
  • 281725Z AUTO 24004KT 200V260 9999 NSC 08/05 Q1020 NOSIG
  • 281655Z AUTO 21008KT 9999 NSC 08/04 Q1020 NOSIG

TAF TAF EHBK
Valid from the 28 at 18:00 until the 01 at 00:00 UTC


281715Z 2818/2924 19006KT 9999 SCT030
PROB40
TEMPO 2910/2924 7000 RADZ



MET'MAP, your aeronautical weather chart ! - Copyright ORBIFLY December 2007 - Disclaimer

ORBIFLY MET'MAP TEAM :

Programming & Development : Alexandra Zaïnal
Original concept : Baudouin d'Aumeries
Technical & hardware support : Manuel Goepfert
Assistance : Marc-Olivier Méhu




SOURCES & CREDITS :

   NOAA